CYPR Airport Information

Runway Information
Runway 13 Length 6000 ft width 200 ft
Elevation 94 ft Threshold 0 ft Heading 152
Runway 31 Length 6000 ft Width 200 ft
Elevation 116 ft Threshold 0 ft Heading 332
Airport Frequencies
Type A/G Name RUPERT RDO Frequency 122.5 MHZ
Type CNTR Name VANCOUVER Frequency 128 MHZ
Type RCO Name TERRACE RD Frequency 122.5 MHZ
Type RDO Name PACIFIC RD Frequency 126.7 MHZ
Airport Navaids
Type DME Name Prince Rupert Frequency 109700 KHZ
Type NDB Name Prince Rupert Frequency 218 KHZ
Airport Weather Information & NOTAM
ADDS - METARS form results

(0250 UTC 20 January 2019)
Data provider http://aviationweather.gov/metar/data/
 
METAR text: CYPR 200240Z AUTO 16013G22KT 5SM RA BR BKN014 OVC025 06/05 A2959 RMK SLP023
Conditions at: CYPR (PRINCE RUPERT AR, BC, CA) observed 0240 UTC 20 January 2019
Temperature: 6.0°C (43°F)
Dewpoint: 5.0°C (41°F) [RH = 93%]
Pressure (altimeter): 29.59 inches Hg (1002.1 mb)
[Sea-level pressure: 1002.3 mb]
Winds: from the SSE (160 degrees) at 15 MPH (13 knots; 6.7 m/s)
gusting to 25 MPH (22 knots; 11.3 m/s)
Visibility: 5 miles ( 8 km)
Ceiling: 1400 feet AGL
Clouds: broken clouds at 1400 feet AGL
overcast cloud deck at 2500 feet AGL
Weather: RA BR  (moderate rain, mist)

METAR text: CYPR 200239Z AUTO 15013G22KT 5SM RA BR SCT014 OVC025 06/05 A2959 RMK SLP022
Conditions at: CYPR (PRINCE RUPERT AR, BC, CA) observed 0239 UTC 20 January 2019
Temperature: 6.0°C (43°F)
Dewpoint: 5.0°C (41°F) [RH = 93%]
Pressure (altimeter): 29.59 inches Hg (1002.1 mb)
[Sea-level pressure: 1002.2 mb]
Winds: from the SSE (150 degrees) at 15 MPH (13 knots; 6.7 m/s)
gusting to 25 MPH (22 knots; 11.3 m/s)
Visibility: 5 miles ( 8 km)
Ceiling: 2500 feet AGL
Clouds: scattered clouds at 1400 feet AGL
overcast cloud deck at 2500 feet AGL
Weather: RA BR  (moderate rain, mist)

METAR text: CYPR 200231Z AUTO 15015G21KT 4SM RA BR SCT011 BKN019 OVC027 06/05 A2958 RMK SLP020
Conditions at: CYPR (PRINCE RUPERT AR, BC, CA) observed 0231 UTC 20 January 2019
Temperature: 6.0°C (43°F)
Dewpoint: 5.0°C (41°F) [RH = 93%]
Pressure (altimeter): 29.58 inches Hg (1001.8 mb)
[Sea-level pressure: 1002.0 mb]
Winds: from the SSE (150 degrees) at 17 MPH (15 knots; 7.7 m/s)
gusting to 24 MPH (21 knots; 10.8 m/s)
Visibility: 4 miles ( 6 km)
Ceiling: 1900 feet AGL
Clouds: scattered clouds at 1100 feet AGL
broken clouds at 1900 feet AGL
overcast cloud deck at 2700 feet AGL
Weather: RA BR  (moderate rain, mist)

METAR text: CYPR 200208Z AUTO 15011G17KT 4SM RA BR FEW008 SCT019 OVC025 06/05 A2957 RMK SLP016
Conditions at: CYPR (PRINCE RUPERT AR, BC, CA) observed 0208 UTC 20 January 2019
Temperature: 6.0°C (43°F)
Dewpoint: 5.0°C (41°F) [RH = 93%]
Pressure (altimeter): 29.57 inches Hg (1001.4 mb)
[Sea-level pressure: 1001.6 mb]
Winds: from the SSE (150 degrees) at 13 MPH (11 knots; 5.7 m/s)
gusting to 20 MPH (17 knots; 8.7 m/s)
Visibility: 4 miles ( 6 km)
Ceiling: 2500 feet AGL
Clouds: few clouds at 800 feet AGL
scattered clouds at 1900 feet AGL
overcast cloud deck at 2500 feet AGL
Weather: RA BR  (moderate rain, mist)

METAR text: CYPR 200200Z AUTO 16009G15KT 120V240 4SM RA BR FEW006 OVC019 06/05 A2957 RMK SLP015
Conditions at: CYPR (PRINCE RUPERT AR, BC, CA) observed 0200 UTC 20 January 2019
Temperature: 6.0°C (43°F)
Dewpoint: 5.0°C (41°F) [RH = 93%]
Pressure (altimeter): 29.57 inches Hg (1001.4 mb)
[Sea-level pressure: 1001.5 mb]
Winds: from the SSE (160 degrees) at 10 MPH (9 knots; 4.6 m/s)
gusting to 17 MPH (15 knots; 7.7 m/s)
Visibility: 4 miles ( 6 km)
Ceiling: 1900 feet AGL
Clouds: few clouds at 600 feet AGL
overcast cloud deck at 1900 feet AGL
Weather: RA BR  (moderate rain, mist)

METAR text: CYPR 200153Z AUTO 16010G15KT 120V250 3SM RA BR FEW006 OVC019 06/05 A2956 RMK SLP013
Conditions at: CYPR (PRINCE RUPERT AR, BC, CA) observed 0153 UTC 20 January 2019
Temperature: 6.0°C (43°F)
Dewpoint: 5.0°C (41°F) [RH = 93%]
Pressure (altimeter): 29.56 inches Hg (1001.1 mb)
[Sea-level pressure: 1001.3 mb]
Winds: from the SSE (160 degrees) at 12 MPH (10 knots; 5.1 m/s)
gusting to 17 MPH (15 knots; 7.7 m/s)
Visibility: 3 miles ( 5 km)
Ceiling: 1900 feet AGL
Clouds: few clouds at 600 feet AGL
overcast cloud deck at 1900 feet AGL
Weather: RA BR  (moderate rain, mist)

Forecast for: CYPR (PRINCE RUPERT AR, BC, CA)
Text: TAF CYPR 200038Z 2001/2013 20012KT P6SM -RA SCT010 OVC025
Forecast period: 0100 to 1300 UTC 20 January 2019
Forecast type: FROM: standard forecast or significant change
Winds: from the SSW (200 degrees) at 14 MPH (12 knots; 6.2 m/s)
Visibility: 6 or more miles 10+ km)
Ceiling: 2500 feet AGL
Clouds: scattered clouds at 1000 feet AGL
overcast cloud deck at 2500 feet AGL
Weather: -RA  (light rain)
Text: TEMPO 2001/2013 2SM -RA BR SCT006 OVC010
Forecast period: 0100 to 1300 UTC 20 January 2019
Forecast type: TEMPORARY: The following changes expected for less than half the time period
Visibility: 2.00 miles (3.22 km)
Ceiling: 1000 feet AGL
Clouds: scattered clouds at 600 feet AGL
overcast cloud deck at 1000 feet AGL
Weather: -RA BR  (light rain, mist)
Text: BECMG 2001/2003 16010KT RMK FCST BASED ON AUTO OBS. NXT FCST BY 200700Z
Forecast period: 0100 to 1300 UTC 20 January 2019
Forecast type: BECOMING: Conditions expected to become as follows by 0300 UTC 20 January 2019
Winds: from the SSE (160 degrees) at 12 MPH (10 knots; 5.1 m/s)
Visibility: 6 or more miles 10+ km)
Ceiling: 2500 feet AGL
Clouds: scattered clouds at 1000 feet AGL
overcast cloud deck at 2500 feet AGL
Weather: -RA  (light rain)